Time;durP1;ratioP1;P1;durP2;ratioP2;P2;SDS_P1;SDS_P2;PMS_P1;PMS_P2;Temp;Humidity;BMP_temperature;BMP_pressure;BME280_temperature;BME280_humidity;BME280_pressure;Samples;Min_cycle;Max_cycle;Signal;HPM_P1;HPM_P2
2021/12/15 00:01:06;;;;;;;;;28.00;26.33;;;;;16.52;49.68;102886.75;4919751;28;46179;-90
2021/12/15 00:03:31;;;;;;;;;26.25;23.00;;;;;16.24;49.83;102848.16;4920000;28;45709;-90
2021/12/15 00:05:57;;;;;;;;;27.50;26.75;;;;;16.20;49.52;102842.13;4919507;28;45642;-91
2021/12/15 00:08:23;;;;;;;;;22.67;21.33;;;;;16.19;49.41;102845.75;4905587;28;45537;-91
2021/12/15 00:10:48;;;;;;;;;21.75;21.00;;;;;16.27;49.72;102859.56;4891993;28;45607;-91
2021/12/15 00:13:15;;;;;;;;;22.50;21.25;;;;;16.26;49.21;102857.81;4918670;28;45896;-91
2021/12/15 00:15:40;;;;;;;;;21.75;19.50;;;;;16.17;49.63;102842.31;4902709;28;45715;-91
2021/12/15 00:18:06;;;;;;;;;26.33;24.67;;;;;16.26;49.33;102863.19;4919873;28;45483;-90
2021/12/15 00:20:31;;;;;;;;;24.33;23.00;;;;;16.33;49.53;102870.88;4884595;28;45437;-90
2021/12/15 00:22:57;;;;;;;;;26.33;25.33;;;;;16.29;49.69;102867.53;4887579;28;45516;-90
2021/12/15 00:25:23;;;;;;;;;21.00;20.00;;;;;16.14;49.29;102842.50;4929652;28;45381;-91
2021/12/15 00:27:49;;;;;;;;;22.25;22.25;;;;;16.13;49.16;102830.91;4978754;28;48252;-90
2021/12/15 00:30:14;;;;;;;;;18.75;18.75;;;;;16.08;49.37;102819.59;4962012;28;45473;-91
2021/12/15 00:32:40;;;;;;;;;25.00;23.00;;;;;16.16;49.40;102837.91;4965243;28;45567;-90
2021/12/15 00:35:06;;;;;;;;;22.75;21.25;;;;;16.21;49.29;102842.97;4975525;28;47659;-90
2021/12/15 00:37:32;;;;;;;;;22.00;20.25;;;;;16.17;49.31;102836.97;4977976;28;45721;-90
2021/12/15 00:39:57;;;;;;;;;21.25;20.75;;;;;16.33;49.42;102862.84;4968061;28;45556;-90
2021/12/15 00:42:23;;;;;;;;;22.00;21.33;;;;;16.15;49.51;102841.50;4999653;28;45357;-91
2021/12/15 00:44:48;;;;;;;;;21.25;20.25;;;;;15.99;49.36;102812.06;4985463;28;45455;-92
2021/12/15 00:47:14;;;;;;;;;24.00;21.00;;;;;16.09;49.41;102832.06;4969518;28;47286;-92
2021/12/15 00:49:39;;;;;;;;;26.75;24.00;;;;;16.13;49.22;102844.28;4980846;28;45815;-90
2021/12/15 00:52:05;;;;;;;;;22.25;20.75;;;;;16.27;49.20;102869.41;4965298;28;45587;-90
2021/12/15 00:54:31;;;;;;;;;21.00;20.50;;;;;15.97;49.44;102820.19;4978897;28;45579;-89
2021/12/15 00:56:56;;;;;;;;;23.67;22.00;;;;;15.97;49.05;102822.00;4978987;28;55835;-90
2021/12/15 00:59:22;;;;;;;;;20.67;20.00;;;;;16.02;49.23;102836.84;4956420;28;47462;-90
2021/12/15 01:01:47;;;;;;;;;23.33;19.33;;;;;16.04;49.40;102842.09;4982178;28;45293;-90
2021/12/15 01:04:14;;;;;;;;;19.25;18.00;;;;;16.14;49.17;102870.13;4968879;28;45520;-90
2021/12/15 01:06:40;;;;;;;;;19.50;19.50;;;;;15.93;49.18;102832.00;4981392;28;47250;-89
2021/12/15 01:09:12;;;;;;;;;22.00;22.00;;;;;15.93;49.09;102826.66;4977333;28;45555;-90
2021/12/15 01:12:04;;;;;;;;;23.50;21.00;;;;;16.13;49.27;102862.16;4980493;28;45527;-90
2021/12/15 01:20:22;;;;;;;;;21.00;19.25;;;;;16.16;49.30;102878.06;4931975;28;46020;-91
2021/12/15 01:22:49;;;;;;;;;20.25;19.50;;;;;15.87;49.44;102824.31;4923197;28;45559;-91
2021/12/15 01:25:21;;;;;;;;;22.00;20.25;;;;;16.14;49.52;102875.50;4914248;28;45570;-91
2021/12/15 01:27:47;;;;;;;;;24.33;22.00;;;;;15.85;49.37;102831.59;4922660;28;47981;-90
2021/12/15 01:30:13;;;;;;;;;19.75;19.75;;;;;15.87;49.29;102829.69;4927688;28;45584;-91
2021/12/15 01:32:39;;;;;;;;;22.67;21.67;;;;;15.83;49.48;102824.50;4927929;28;45480;-90
2021/12/15 01:35:05;;;;;;;;;20.25;20.00;;;;;16.04;49.28;102869.75;4918011;28;45642;-90
2021/12/15 01:37:30;;;;;;;;;20.75;18.25;;;;;15.96;49.17;102855.06;4917533;28;46864;-90
2021/12/15 01:39:56;;;;;;;;;22.25;18.50;;;;;15.85;49.29;102839.63;4903108;28;45467;-90
2021/12/15 01:42:24;;;;;;;;;21.75;19.50;;;;;15.98;49.19;102862.06;4917488;28;45586;-90
2021/12/15 01:47:34;;;;;;;;;20.50;20.50;;;;;16.03;49.13;102883.25;4942080;28;45580;-90
2021/12/15 01:49:59;;;;;;;;;24.25;20.75;;;;;15.98;49.27;102871.94;4921951;28;45476;-90
2021/12/15 01:52:30;;;;;;;;;13.00;12.25;;;;;15.71;49.01;102835.91;4978087;28;45545;-89
2021/12/15 01:54:59;;;;;;;;;18.25;18.00;;;;;15.68;49.28;102836.09;4991642;28;45381;-89
2021/12/15 01:57:25;;;;;;;;;22.00;22.00;;;;;15.68;49.17;102825.38;4979038;28;48391;-90
2021/12/15 01:59:51;;;;;;;;;20.00;20.00;;;;;15.77;49.21;102835.56;4973629;28;45854;-89
2021/12/15 02:02:17;;;;;;;;;20.67;20.67;;;;;15.66;49.35;102827.28;4958500;28;45532;-89
2021/12/15 02:04:42;;;;;;;;;20.75;19.50;;;;;15.59;49.13;102822.28;4975140;28;45496;-90
2021/12/15 02:07:09;;;;;;;;;21.00;18.75;;;;;15.67;49.40;102839.69;4996993;28;45527;-92
2021/12/15 02:12:27;;;;;;;;;16.75;16.00;;;;;15.81;48.64;102869.22;4995801;28;45362;-91
2021/12/15 02:14:53;;;;;;;;;24.33;21.67;;;;;15.61;48.80;102841.78;4994752;28;45746;-91
2021/12/15 02:17:19;;;;;;;;;20.00;19.00;;;;;15.78;48.75;102872.06;4968689;28;47684;-89
2021/12/15 02:19:44;;;;;;;;;20.25;19.00;;;;;15.70;48.79;102856.47;4997084;28;45568;-89
2021/12/15 02:22:10;;;;;;;;;18.25;16.00;;;;;15.57;49.16;102840.22;4951646;28;45279;-90
2021/12/15 02:24:36;;;;;;;;;19.00;17.00;;;;;15.67;48.87;102855.75;4982704;28;45421;-90
2021/12/15 02:27:03;;;;;;;;;21.33;18.67;;;;;15.71;49.12;102863.53;4992313;28;45630;-90
2021/12/15 02:29:33;;;;;;;;;17.50;17.00;;;;;15.66;48.83;102852.22;4958859;28;45490;-90
2021/12/15 02:32:18;;;;;;;;;19.50;16.25;;;;;15.54;49.05;102836.84;4977325;28;45668;-90
2021/12/15 02:37:17;;;;;;;;;19.00;18.00;;;;;15.56;49.28;102843.84;4969053;28;45886;-89
2021/12/15 02:40:05;;;;;;;;;18.50;18.50;;;;;15.78;49.16;102885.47;4966608;28;45882;-89
2021/12/15 02:42:36;;;;;;;;;21.50;20.75;;;;;15.78;48.79;102880.09;4977361;28;45344;-90
2021/12/15 02:45:04;;;;;;;;;18.25;18.25;;;;;15.77;48.91;102882.88;4960624;28;45604;-89
2021/12/15 02:47:29;;;;;;;;;18.00;17.00;;;;;15.48;48.88;102835.38;4975368;28;46215;-90
2021/12/15 02:49:56;;;;;;;;;16.25;16.25;;;;;15.75;49.10;102868.72;4964146;28;45737;-91
2021/12/15 02:52:21;;;;;;;;;16.75;16.75;;;;;15.70;49.03;102871.63;4977511;28;45547;-90
2021/12/15 02:54:47;;;;;;;;;19.00;19.00;;;;;15.37;48.87;102818.13;4966529;28;45453;-90
2021/12/15 02:57:13;;;;;;;;;17.50;17.00;;;;;15.39;49.01;102824.22;4974660;28;45469;-90
2021/12/15 03:05:16;;;;;;;;;15.25;15.25;;;;;15.46;48.84;102842.63;4981027;28;45598;-91
2021/12/15 03:08:02;;;;;;;;;16.00;16.00;;;;;15.36;48.67;102832.44;4982380;28;46594;-90
2021/12/15 03:15:56;;;;;;;;;16.75;15.75;;;;;15.52;48.64;102863.66;5006435;28;45303;-90
2021/12/15 03:18:23;;;;;;;;;15.25;15.25;;;;;15.55;49.03;102876.00;4978227;28;46505;-90
2021/12/15 03:20:57;;;;;;;;;14.75;14.75;;;;;15.57;49.13;102879.50;4972590;28;45438;-90
2021/12/15 03:23:41;;;;;;;;;11.00;11.00;;;;;15.47;48.71;102860.38;4989358;28;45602;-90
2021/12/15 03:26:08;;;;;;;;;19.75;17.25;;;;;15.47;48.84;102866.59;4962451;28;45918;-90
2021/12/15 03:36:40;;;;;;;;;18.25;16.75;;;;;15.41;49.08;102855.38;4975027;28;45553;-89
2021/12/15 03:39:08;;;;;;;;;16.00;16.00;;;;;15.39;49.01;102853.66;4982995;28;48285;-90
2021/12/15 03:41:34;;;;;;;;;15.50;14.75;;;;;15.36;48.89;102847.59;4985633;28;45467;-90
2021/12/15 03:44:00;;;;;;;;;14.75;14.75;;;;;15.19;48.78;102819.09;4970569;28;45362;-90
2021/12/15 03:46:26;;;;;;;;;19.67;16.67;;;;;15.25;49.04;102841.03;4982807;28;45634;-90
2021/12/15 03:48:51;;;;;;;;;16.50;16.50;;;;;15.26;48.82;102836.56;4983450;28;45580;-91
2021/12/15 03:51:17;;;;;;;;;13.00;13.00;;;;;15.31;48.51;102850.53;4983490;28;45973;-91
2021/12/15 03:53:42;;;;;;;;;12.50;12.00;;;;;15.22;48.98;102834.97;4988544;28;45480;-90
2021/12/15 03:56:10;;;;;;;;;22.33;22.33;;;;;15.28;48.43;102848.91;4973321;28;45611;-90
2021/12/15 03:58:36;;;;;;;;;18.00;17.67;;;;;15.39;49.01;102867.03;4982598;28;47718;-90
2021/12/15 04:01:06;;;;;;;;;16.00;15.75;;;;;15.20;48.74;102831.53;4982255;28;45610;-90
2021/12/15 04:03:36;;;;;;;;;16.00;15.25;;;;;15.26;48.70;102845.41;4975000;28;45434;-89
2021/12/15 04:06:03;;;;;;;;;18.00;18.00;;;;;15.10;49.07;102829.34;4983174;28;45876;-90
2021/12/15 04:08:28;;;;;;;;;14.75;13.00;;;;;15.08;48.71;102833.03;4961359;28;49858;-89
2021/12/15 04:10:54;;;;;;;;;18.25;17.25;;;;;15.05;48.87;102832.28;4981168;28;45563;-89
2021/12/15 04:13:20;;;;;;;;;14.00;13.00;;;;;15.13;48.80;102839.88;5014517;28;45427;-89
2021/12/15 04:15:55;;;;;;;;;17.25;15.00;;;;;15.05;48.76;102828.72;4974497;28;45551;-89
2021/12/15 04:18:21;;;;;;;;;14.75;14.25;;;;;15.19;48.81;102861.88;5008238;28;48056;-89
2021/12/15 04:20:47;;;;;;;;;14.50;14.50;;;;;15.12;48.97;102840.81;5010132;28;45600;-89
2021/12/15 04:23:12;;;;;;;;;15.00;14.50;;;;;15.04;48.77;102827.00;4965353;28;45745;-89
2021/12/15 04:25:40;;;;;;;;;16.50;16.50;;;;;15.00;48.87;102825.44;4972418;28;45543;-90
2021/12/15 04:28:12;;;;;;;;;15.00;15.00;;;;;15.09;48.71;102840.97;4981880;28;46644;-89
2021/12/15 04:30:42;;;;;;;;;16.00;14.33;;;;;15.15;48.55;102850.47;4968609;28;45670;-90
2021/12/15 04:33:13;;;;;;;;;16.00;15.00;;;;;15.09;48.68;102846.31;4965446;28;45338;-89
2021/12/15 04:35:39;;;;;;;;;13.25;12.75;;;;;14.91;48.18;102822.31;4966163;28;45435;-89
2021/12/15 04:38:04;;;;;;;;;13.00;11.75;;;;;15.05;49.03;102844.78;4997597;28;47904;-90
2021/12/15 04:40:30;;;;;;;;;14.00;14.00;;;;;15.06;48.88;102842.00;4962113;28;46108;-90
2021/12/15 04:42:55;;;;;;;;;17.75;16.00;;;;;15.11;48.75;102852.47;4980897;28;45604;-90
2021/12/15 04:45:21;;;;;;;;;15.00;15.00;;;;;14.97;48.86;102837.16;4979682;28;45666;-91
2021/12/15 04:47:50;;;;;;;;;15.50;13.25;;;;;15.04;48.89;102843.91;4981447;28;47149;-91
2021/12/15 04:50:16;;;;;;;;;16.50;13.75;;;;;14.91;48.55;102821.44;4981801;28;45618;-90
2021/12/15 04:52:42;;;;;;;;;14.75;14.00;;;;;14.98;48.69;102838.88;4998077;28;45560;-91
2021/12/15 04:55:08;;;;;;;;;12.75;12.25;;;;;15.14;48.36;102865.69;4979529;28;45704;-90
2021/12/15 04:57:33;;;;;;;;;15.50;15.50;;;;;14.88;48.35;102827.81;4958380;28;47309;-91
2021/12/15 04:59:59;;;;;;;;;14.25;14.00;;;;;15.04;48.50;102859.06;4981306;28;45486;-90
2021/12/15 05:02:24;;;;;;;;;11.75;11.75;;;;;14.92;47.89;102840.06;4991375;28;45486;-90
2021/12/15 05:04:50;;;;;;;;;13.00;13.00;;;;;14.91;48.25;102843.69;4977793;28;45736;-90
2021/12/15 05:07:15;;;;;;;;;14.25;12.75;;;;;14.88;48.57;102843.84;4971998;28;46936;-90
2021/12/15 05:09:41;;;;;;;;;13.00;13.00;;;;;14.91;48.56;102846.38;4998191;28;45436;-90
2021/12/15 05:12:08;;;;;;;;;13.25;13.00;;;;;14.86;48.59;102835.00;4981054;28;45457;-89
2021/12/15 05:14:33;;;;;;;;;13.25;11.00;;;;;14.89;48.19;102850.06;4980926;28;45627;-90
2021/12/15 05:16:59;;;;;;;;;12.50;12.50;;;;;14.78;48.75;102829.19;4993512;28;46636;-90
2021/12/15 05:19:26;;;;;;;;;14.75;12.25;;;;;14.90;48.76;102858.00;4980211;28;45457;-89
2021/12/15 05:21:52;;;;;;;;;11.00;10.75;;;;;14.85;48.33;102849.31;4979704;28;45302;-91
2021/12/15 05:26:53;;;;;;;;;14.75;13.50;;;;;14.93;48.65;102863.19;4974243;28;45510;-91
2021/12/15 05:29:18;;;;;;;;;14.50;12.75;;;;;14.77;48.55;102830.16;4992702;28;46144;-90
2021/12/15 05:31:44;;;;;;;;;11.50;11.50;;;;;14.77;48.95;102827.47;4990123;28;45545;-91
2021/12/15 05:34:09;;;;;;;;;14.00;12.75;;;;;14.66;48.55;102812.84;4971854;28;45552;-90
2021/12/15 05:36:34;;;;;;;;;12.25;12.00;;;;;14.68;48.68;102827.00;4961541;28;47070;-89
2021/12/15 05:39:00;;;;;;;;;13.33;13.00;;;;;14.69;48.58;102843.88;4976570;28;47878;-91
2021/12/15 05:41:25;;;;;;;;;14.50;13.00;;;;;14.73;48.62;102846.34;5128426;22;46675;-96
2021/12/15 05:43:51;;;;;;;;;10.25;9.00;;;;;14.89;49.57;102869.63;4953009;28;45440;-94
2021/12/15 05:46:16;;;;;;;;;12.25;11.25;;;;;15.04;48.09;102875.09;4944935;28;47179;-94
2021/12/15 05:48:51;;;;;;;;;11.50;10.50;;;;;15.14;48.20;102884.41;4950441;28;45287;-95
2021/12/15 05:54:32;;;;;;;;;12.00;12.00;;;;;15.20;47.26;102864.50;4971530;28;45646;-94
2021/12/15 05:57:09;;;;;;;;;9.00;9.00;;;;;15.12;47.68;102829.25;4970364;28;46183;-94
2021/12/15 06:00:13;;;;;;;;;;;;;;;;;;;;;
2021/12/15 06:02:52;;;;;;;;;9.75;9.00;;;;;15.34;47.35;102845.03;4999069;28;67481;-93
2021/12/15 06:05:18;;;;;;;;;12.50;12.00;;;;;15.19;46.49;102819.09;4963705;28;45553;-94
2021/12/15 06:08:25;;;;;;;;;11.75;11.00;;;;;15.63;47.15;102889.00;4946087;28;46792;-96
2021/12/15 06:10:50;;;;;;;;;11.25;10.25;;;;;15.57;46.84;102885.72;4888225;29;45306;-95
2021/12/15 06:13:16;;;;;;;;;10.50;10.50;;;;;15.60;46.78;102900.72;4871239;29;45485;-94
2021/12/15 06:15:45;;;;;;;;;11.25;11.25;;;;;15.51;47.31;102894.06;4864439;28;45518;-91
2021/12/15 06:18:13;;;;;;;;;15.25;15.25;;;;;15.36;46.54;102869.88;4863487;29;45799;-90
2021/12/15 06:20:54;;;;;;;;;12.00;11.00;;;;;15.22;47.28;102859.91;4867718;29;45530;-96
2021/12/15 06:23:22;;;;;;;;;12.50;11.75;;;;;15.49;47.33;102910.19;4879095;29;45605;-96
2021/12/15 06:26:01;;;;;;;;;9.25;9.25;;;;;15.17;47.24;102859.31;4852052;29;45306;-95
2021/12/15 06:28:28;;;;;;;;;12.75;10.00;;;;;15.15;47.53;102866.53;4853490;29;47785;-90
2021/12/15 06:30:54;;;;;;;;;12.25;10.25;;;;;15.06;47.61;102858.03;4882869;28;45559;-90
2021/12/15 06:33:19;;;;;;;;;17.75;16.75;;;;;15.30;47.64;102896.94;4861154;29;45655;-94
2021/12/15 06:35:52;;;;;;;;;13.25;13.25;;;;;15.29;47.51;102900.53;4844796;29;45473;-90
2021/12/15 06:38:20;;;;;;;;;14.00;14.00;;;;;15.12;47.51;102870.22;4878052;29;45759;-92
2021/12/15 06:40:45;;;;;;;;;12.50;11.00;;;;;15.14;47.96;102891.53;4864479;29;45673;-95
2021/12/15 06:43:10;;;;;;;;;14.00;14.00;;;;;15.01;47.37;102867.25;4862374;29;45377;-89
2021/12/15 06:45:49;;;;;;;;;14.00;11.00;;;;;15.19;48.12;102899.31;4960698;28;45514;-96
2021/12/15 06:59:10;;;;;;;;;11.25;11.25;;;;;15.03;48.20;102910.81;4957414;28;45492;-92
2021/12/15 07:01:35;;;;;;;;;16.50;12.00;;;;;14.93;48.69;102905.94;4946739;28;52073;-92
2021/12/15 07:04:01;;;;;;;;;11.50;10.50;;;;;14.83;48.25;102888.63;4946363;28;48734;-93
2021/12/15 07:06:27;;;;;;;;;15.25;14.00;;;;;14.95;48.33;102914.75;4963133;28;45427;-93
2021/12/15 07:08:53;;;;;;;;;15.50;15.00;;;;;14.73;48.41;102883.75;4953738;28;46278;-92
2021/12/15 07:11:19;;;;;;;;;13.25;11.25;;;;;14.67;48.54;102880.50;4951659;28;45521;-94
2021/12/15 07:13:45;;;;;;;;;12.25;12.00;;;;;14.93;48.13;102935.34;4946057;28;45407;-93
2021/12/15 07:16:10;;;;;;;;;12.25;10.75;;;;;14.78;47.79;102914.69;4946117;28;45683;-93
2021/12/15 07:18:48;;;;;;;;;11.75;11.00;;;;;14.81;48.07;102927.91;4946312;28;48322;-93
2021/12/15 07:21:19;;;;;;;;;13.00;13.00;;;;;14.73;48.12;102921.16;4948046;28;45613;-93
2021/12/15 07:23:44;;;;;;;;;12.00;11.25;;;;;14.64;47.90;102904.69;4947119;28;45460;-93
2021/12/15 07:26:10;;;;;;;;;17.67;15.67;;;;;14.73;47.97;102920.28;4976620;28;45548;-94
2021/12/15 07:28:35;;;;;;;;;14.25;13.25;;;;;14.67;48.23;102915.25;4946298;28;47077;-93
2021/12/15 07:31:01;;;;;;;;;14.33;13.33;;;;;14.59;48.26;102900.47;4945415;28;45424;-93
2021/12/15 07:33:26;;;;;;;;;15.00;13.50;;;;;14.65;47.96;102917.13;4927601;28;45575;-93
2021/12/15 07:35:52;;;;;;;;;12.75;11.00;;;;;14.83;48.29;102952.78;4933584;28;45510;-92
2021/12/15 07:38:17;;;;;;;;;14.00;12.75;;;;;14.77;48.37;102945.06;4944715;28;47286;-93
2021/12/15 07:40:43;;;;;;;;;15.25;14.00;;;;;14.80;48.24;102956.44;4946100;28;45684;-93
2021/12/15 07:43:11;;;;;;;;;16.25;14.75;;;;;14.87;48.07;102965.06;4943658;28;45460;-92
2021/12/15 07:45:41;;;;;;;;;13.25;11.00;;;;;14.86;48.31;102973.97;4968006;28;45331;-92
2021/12/15 07:48:06;;;;;;;;;18.00;16.00;;;;;14.87;48.54;102975.75;4955335;28;48236;-93
2021/12/15 07:50:33;;;;;;;;;14.25;13.00;;;;;14.86;48.25;102979.31;4941954;28;45734;-94
2021/12/15 07:52:58;;;;;;;;;19.25;16.00;;;;;14.82;48.06;102970.59;4935252;28;45413;-94
2021/12/15 07:55:25;;;;;;;;;20.00;17.00;;;;;14.90;47.85;102986.28;4945067;28;45475;-94
2021/12/15 07:57:51;;;;;;;;;17.25;16.50;;;;;14.88;48.11;102987.31;4945215;28;47305;-92
2021/12/15 08:00:17;;;;;;;;;19.25;16.25;;;;;14.82;48.28;102983.09;4960206;28;46066;-92
2021/12/15 08:02:42;;;;;;;;;15.75;13.50;;;;;14.89;48.28;102989.88;4944023;28;45281;-93
2021/12/15 08:05:08;;;;;;;;;18.25;14.25;;;;;14.81;48.45;102978.69;4960392;28;45429;-93
2021/12/15 08:07:33;;;;;;;;;16.00;15.67;;;;;14.85;48.31;102977.59;4945198;28;47272;-95
2021/12/15 08:09:59;;;;;;;;;21.00;18.00;;;;;14.80;48.14;102975.13;4938059;28;45655;-93
2021/12/15 08:12:27;;;;;;;;;19.00;16.00;;;;;14.78;48.12;102968.16;4945800;28;45438;-94
2021/12/15 08:14:53;;;;;;;;;16.50;16.50;;;;;14.90;48.60;102991.63;4953653;28;45762;-91
2021/12/15 08:17:20;;;;;;;;;12.50;11.25;;;;;14.85;48.34;102988.28;4955598;28;47239;-92
2021/12/15 08:19:45;;;;;;;;;16.75;13.75;;;;;14.86;48.44;102989.16;4952513;28;45761;-93
2021/12/15 08:22:11;;;;;;;;;17.00;13.75;;;;;14.79;48.43;102972.56;4947120;28;45357;-91
2021/12/15 08:24:36;;;;;;;;;17.00;15.50;;;;;14.72;48.51;102967.50;4930098;28;45373;-91
2021/12/15 08:27:02;;;;;;;;;17.00;13.75;;;;;14.89;48.25;103000.56;4944892;28;47163;-92
2021/12/15 08:29:27;;;;;;;;;17.67;16.67;;;;;14.82;47.92;102988.44;4945943;28;45397;-92
2021/12/15 08:31:52;;;;;;;;;15.75;14.00;;;;;14.88;48.00;103004.22;4950199;28;45807;-92
2021/12/15 08:34:18;;;;;;;;;15.00;13.50;;;;;14.81;47.84;102998.25;4941368;28;45898;-92
2021/12/15 08:36:43;;;;;;;;;16.75;12.00;;;;;14.88;48.29;103020.25;4958529;28;56655;-92
2021/12/15 08:39:09;;;;;;;;;15.75;15.75;;;;;14.68;48.06;102984.66;4944110;28;45411;-92
2021/12/15 08:41:35;;;;;;;;;15.00;14.25;;;;;14.79;47.88;103000.16;4947928;28;45645;-92
2021/12/15 08:44:00;;;;;;;;;13.00;13.00;;;;;14.75;48.30;102987.88;4948225;28;45329;-92
2021/12/15 08:46:39;;;;;;;;;16.50;14.00;;;;;14.86;48.58;103007.88;4933241;28;47069;-92
2021/12/15 08:49:04;;;;;;;;;17.50;15.50;;;;;14.60;48.01;102968.13;4964208;28;45832;-92
2021/12/15 08:51:30;;;;;;;;;14.00;13.00;;;;;14.70;48.07;102980.09;4963643;28;46765;-90
2021/12/15 08:53:58;;;;;;;;;19.00;15.00;;;;;14.70;48.20;102974.75;4979966;28;45525;-94
2021/12/15 08:56:23;;;;;;;;;15.25;13.00;;;;;14.78;47.94;102997.53;4948690;28;47240;-93
2021/12/15 08:58:49;;;;;;;;;15.25;13.00;;;;;14.84;48.33;103018.63;4945022;28;45710;-93
2021/12/15 09:01:14;;;;;;;;;16.25;13.50;;;;;14.87;48.67;103018.50;4958344;28;45534;-92
2021/12/15 09:03:42;;;;;;;;;15.33;14.00;;;;;14.81;48.03;103008.06;4948910;28;45424;-93
2021/12/15 09:06:08;;;;;;;;;16.00;15.00;;;;;14.77;48.16;103012.72;4950418;28;47613;-92
2021/12/15 09:08:34;;;;;;;;;14.00;14.00;;;;;14.79;48.10;103004.63;4949932;28;45443;-93
2021/12/15 09:11:02;;;;;;;;;16.75;15.75;;;;;14.85;48.60;103015.03;4964667;28;45708;-93
2021/12/15 09:13:30;;;;;;;;;14.00;13.25;;;;;14.86;48.70;103027.41;4961104;28;45431;-92
2021/12/15 09:15:57;;;;;;;;;15.00;14.00;;;;;14.87;48.05;103029.19;4957473;28;47117;-92
2021/12/15 09:18:22;;;;;;;;;19.33;17.33;;;;;14.81;48.35;103018.78;4963436;28;45621;-92
2021/12/15 09:20:48;;;;;;;;;14.00;14.00;;;;;14.90;48.11;103034.38;4937993;28;49717;-92
2021/12/15 09:23:14;;;;;;;;;16.00;13.75;;;;;14.91;48.29;103029.91;4939325;28;44959;-92
2021/12/15 09:25:40;;;;;;;;;17.00;17.00;;;;;14.86;48.08;103016.72;4945591;28;47363;-92
2021/12/15 09:28:06;;;;;;;;;14.75;13.75;;;;;14.80;48.41;103011.72;4944180;28;45666;-92
2021/12/15 09:30:31;;;;;;;;;22.67;20.00;;;;;14.69;48.25;102994.38;4950828;28;48361;-93
2021/12/15 09:32:57;;;;;;;;;14.25;14.25;;;;;14.79;48.29;103009.97;4946692;28;45541;-91
2021/12/15 09:35:23;;;;;;;;;18.00;16.67;;;;;14.82;48.27;103015.16;4944084;28;47725;-92
2021/12/15 09:37:49;;;;;;;;;16.33;15.00;;;;;14.82;48.51;103009.81;4946469;28;45494;-92
2021/12/15 09:40:16;;;;;;;;;20.67;20.00;;;;;14.78;48.29;103008.22;4970275;28;45603;-90
2021/12/15 09:42:41;;;;;;;;;15.25;13.50;;;;;14.88;48.32;103025.59;4963626;28;46128;-92
2021/12/15 09:45:36;;;;;;;;;21.00;19.00;;;;;14.86;48.57;103016.72;4946315;28;47426;-92
2021/12/15 10:06:34;;;;;;;;;20.33;20.33;;;;;14.62;48.64;102971.59;4964172;28;46149;-95
2021/12/15 10:17:27;;;;;;;;;17.33;16.33;;;;;14.79;48.78;103012.63;4959338;28;45415;-95
2021/12/15 10:19:56;;;;;;;;;19.33;15.67;;;;;14.72;48.58;103004.91;4937289;28;45443;-94
2021/12/15 10:22:38;;;;;;;;;14.00;13.75;;;;;14.95;48.76;103031.47;4950704;28;45609;-96
2021/12/15 10:25:13;;;;;;;;;14.25;12.00;;;;;14.78;48.89;103009.09;4949176;28;45612;-95
2021/12/15 10:27:43;;;;;;;;;16.25;14.25;;;;;14.80;48.86;103006.38;4944136;28;47968;-95
2021/12/15 10:30:25;;;;;;;;;19.50;17.00;;;;;15.00;48.99;103031.28;4964238;28;45880;-96
2021/12/15 10:32:56;;;;;;;;;17.67;15.00;;;;;14.98;48.92;103025.13;4975596;28;45371;-94
2021/12/15 10:35:37;;;;;;;;;17.33;16.00;;;;;14.94;48.96;103011.91;4947632;28;45639;-94
2021/12/15 10:38:30;;;;;;;;;19.67;17.00;;;;;15.03;48.87;103023.09;4948301;28;47260;-95
2021/12/15 10:41:09;;;;;;;;;18.67;18.00;;;;;15.03;49.05;103029.28;4954877;28;45805;-93
2021/12/15 10:43:37;;;;;;;;;16.33;15.00;;;;;15.05;49.17;103023.88;4957517;28;45540;-93
2021/12/15 10:46:13;;;;;;;;;18.67;17.00;;;;;14.84;49.10;102986.56;4976036;28;45569;-93
2021/12/15 10:48:50;;;;;;;;;22.33;17.67;;;;;14.86;49.37;102995.34;4970415;28;47526;-92
2021/12/15 10:51:30;;;;;;;;;17.00;17.00;;;;;14.78;48.53;102973.47;4942175;28;45570;-93
2021/12/15 10:54:01;;;;;;;;;19.33;18.00;;;;;14.82;48.74;102972.41;4946389;28;45557;-92
2021/12/15 10:56:29;;;;;;;;;19.00;17.00;;;;;15.02;48.74;103013.34;4935071;28;45611;-93
2021/12/15 10:58:58;;;;;;;;;18.00;18.00;;;;;15.11;48.72;103018.25;4946370;28;47358;-93
2021/12/15 11:01:42;;;;;;;;;18.67;18.67;;;;;15.12;49.11;103017.28;4943518;28;45573;-93
2021/12/15 11:04:20;;;;;;;;;20.33;19.67;;;;;15.12;48.83;103011.94;4974411;28;45315;-92
2021/12/15 11:06:46;;;;;;;;;13.75;13.50;;;;;14.97;49.23;102980.63;4974237;28;45682;-92
2021/12/15 11:09:17;;;;;;;;;19.33;17.33;;;;;15.09;48.95;102992.53;4956394;28;48125;-93
2021/12/15 11:12:00;;;;;;;;;22.33;18.00;;;;;14.89;49.37;102965.81;4941534;28;46026;-92
2021/12/15 11:14:29;;;;;;;;;21.33;18.67;;;;;14.86;48.84;102946.41;4957836;28;45455;-92
2021/12/15 11:17:09;;;;;;;;;16.67;15.33;;;;;15.00;49.20;102969.78;4950802;28;45509;-92
2021/12/15 11:19:48;;;;;;;;;20.67;18.67;;;;;15.19;49.14;102995.56;4925863;28;47124;-92
2021/12/15 11:22:33;;;;;;;;;21.00;18.00;;;;;15.19;49.21;102995.56;4951689;28;45405;-91
2021/12/15 11:25:02;;;;;;;;;16.25;14.75;;;;;15.21;49.36;102993.69;4958558;28;45434;-92
2021/12/15 11:27:28;;;;;;;;;18.67;17.33;;;;;15.11;48.91;102972.78;4955011;28;45882;-90
2021/12/15 11:29:53;;;;;;;;;18.00;17.50;;;;;14.92;48.68;102946.97;4942303;28;47546;-91
2021/12/15 11:32:41;;;;;;;;;14.25;14.25;;;;;15.23;48.81;102981.97;4975501;28;45373;-90
2021/12/15 11:35:19;;;;;;;;;18.00;17.00;;;;;15.16;49.59;102962.72;4953500;28;45743;-90
2021/12/15 11:37:45;;;;;;;;;15.00;15.00;;;;;15.30;49.38;102977.16;4939326;28;45618;-89
2021/12/15 11:40:11;;;;;;;;;15.00;14.25;;;;;15.35;48.74;102980.47;4970781;28;46060;-91
2021/12/15 11:42:40;;;;;;;;;17.00;15.67;;;;;15.39;48.74;102966.00;4957032;28;46067;-91
2021/12/15 11:45:10;;;;;;;;;18.00;15.67;;;;;15.54;48.29;102973.28;4958681;28;45600;-90
2021/12/15 11:47:37;;;;;;;;;19.00;17.33;;;;;15.65;48.39;102975.41;4946432;28;45607;-91
2021/12/15 11:50:31;;;;;;;;;17.50;17.50;;;;;15.66;48.35;102961.91;4952136;28;46785;-91
2021/12/15 11:52:57;;;;;;;;;22.67;21.67;;;;;15.71;47.74;102949.19;4962185;28;45689;-90
2021/12/15 11:55:30;;;;;;;;;19.75;19.25;;;;;15.60;48.20;102931.00;4942767;28;45313;-91
2021/12/15 11:57:57;;;;;;;;;23.33;23.33;;;;;15.61;48.09;102929.19;4941108;28;45650;-90
2021/12/15 12:00:26;;;;;;;;;20.00;16.75;;;;;15.76;48.25;102946.25;4949388;28;47864;-90
2021/12/15 12:02:54;;;;;;;;;23.25;18.25;;;;;15.70;48.17;102946.56;4951246;28;45939;-90
2021/12/15 12:05:33;;;;;;;;;18.25;17.25;;;;;15.81;48.35;102962.91;4952417;28;45664;-90
2021/12/15 12:08:03;;;;;;;;;19.75;19.75;;;;;15.80;48.63;102961.19;4976255;28;45561;-91
2021/12/15 12:10:49;;;;;;;;;23.00;20.33;;;;;15.72;48.63;102950.88;4966474;28;48372;-91
2021/12/15 12:13:28;;;;;;;;;19.25;16.50;;;;;15.76;48.49;102946.25;4942220;28;45541;-91
2021/12/15 12:15:56;;;;;;;;;17.50;16.00;;;;;15.64;48.79;102938.88;4956597;28;45761;-90
2021/12/15 12:18:23;;;;;;;;;18.67;17.00;;;;;15.66;48.68;102945.03;4941448;28;45451;-91
2021/12/15 12:20:56;;;;;;;;;20.67;20.67;;;;;15.69;48.73;102945.69;4959040;28;45535;-90
2021/12/15 12:23:27;;;;;;;;;19.00;18.50;;;;;15.69;49.15;102945.69;4957598;28;45783;-90
2021/12/15 12:26:01;;;;;;;;;21.00;20.00;;;;;15.68;49.05;102953.81;4943379;28;45393;-90
2021/12/15 12:28:30;;;;;;;;;19.25;18.00;;;;;15.74;49.16;102952.63;4943602;28;45634;-90
2021/12/15 12:31:16;;;;;;;;;19.75;18.50;;;;;15.65;48.98;102941.47;4938439;28;47573;-90
2021/12/15 12:33:42;;;;;;;;;24.33;21.00;;;;;15.65;49.22;102938.81;4942926;28;45459;-88
2021/12/15 12:36:16;;;;;;;;;20.67;19.33;;;;;15.70;49.60;102947.44;4958119;28;45525;-91